createdAt,value
2018-07-06T00:02:15.042Z,"    0"
2018-07-06T00:07:11.171Z,"    0"
2018-07-06T00:12:06.935Z,"    0"
2018-07-06T00:17:02.858Z,"    0"
2018-07-06T00:21:59.729Z,"    0"
2018-07-06T00:26:55.439Z,"    0"
2018-07-06T00:31:52.205Z,"    0"
2018-07-06T00:36:47.842Z,"    0"
2018-07-06T00:41:44.818Z,"    0"
2018-07-06T00:46:41.095Z,"    0"
2018-07-06T00:51:37.717Z,"    0"
2018-07-06T00:56:34.338Z,"    0"
2018-07-06T01:01:30.856Z,"    0"
2018-07-06T01:06:27.721Z,"    0"
2018-07-06T01:11:23.496Z,"    0"
2018-07-06T01:16:19.468Z,"    0"
2018-07-06T01:21:15.671Z,"    0"
2018-07-06T01:26:12.946Z,"    0"
2018-07-06T01:31:09.957Z,"    0"
2018-07-06T01:36:05.580Z,"    0"
2018-07-06T01:41:01.686Z,"    0"
2018-07-06T01:45:58.675Z,"    0"
2018-07-06T01:50:55.038Z,"    0"
2018-07-06T01:55:50.192Z,"    0"
2018-07-06T02:00:46.223Z,"    0"
2018-07-06T02:05:42.208Z,"    0"
2018-07-06T02:10:38.394Z,"    0"
2018-07-06T02:15:35.546Z,"    0"
2018-07-06T02:20:31.049Z,"    0"
2018-07-06T02:25:28.300Z,"    0"
2018-07-06T02:30:23.672Z,"    0"
2018-07-06T02:35:19.957Z,"    0"
2018-07-06T02:40:16.937Z,"    0"
2018-07-06T02:45:12.300Z,"    0"
2018-07-06T02:50:08.209Z,"    0"
2018-07-06T02:55:05.113Z,"    0"
2018-07-06T03:00:00.858Z,"    0"
2018-07-06T03:04:56.958Z,"    0"
2018-07-06T03:09:53.502Z,"    0"
2018-07-06T03:14:49.551Z,"    0"
2018-07-06T03:19:45.598Z,"    0"
2018-07-06T03:24:41.296Z,"    0"
2018-07-06T03:29:38.029Z,"    0"
2018-07-06T03:34:33.467Z,"    5"
2018-07-06T03:39:29.289Z,"    5"
2018-07-06T03:44:25.052Z,"    5"
2018-07-06T03:49:21.177Z,"   10"
2018-07-06T03:54:16.973Z,"   10"
2018-07-06T03:59:12.956Z,"   10"
2018-07-06T04:04:09.741Z,"   10"
2018-07-06T04:09:05.089Z,"   10"
2018-07-06T04:14:01.157Z,"   10"
2018-07-06T04:18:57.937Z,"   10"
2018-07-06T04:23:53.829Z,"   25"
2018-07-06T04:28:49.801Z,"   25"
2018-07-06T04:33:45.605Z,"   20"
2018-07-06T04:38:41.446Z,"   20"
2018-07-06T04:43:37.386Z,"   20"
2018-07-06T04:48:33.977Z,"   20"
2018-07-06T04:53:29.641Z,"   25"
2018-07-06T04:58:25.790Z,"   25"
2018-07-06T05:03:21.835Z,"   30"
2018-07-06T05:08:17.760Z,"   30"
2018-07-06T05:13:13.523Z,"   25"
2018-07-06T05:18:09.311Z,"   30"
2018-07-06T05:23:05.278Z,"   40"
2018-07-06T05:28:01.342Z,"   30"
2018-07-06T05:32:57.278Z,"   35"
2018-07-06T05:37:53.210Z,"   45"
2018-07-06T05:42:49.047Z,"   60"
2018-07-06T05:47:44.923Z,"   55"
2018-07-06T05:52:40.628Z,"   60"
2018-07-06T05:57:37.562Z,"   50"
2018-07-06T06:02:33.054Z,"   60"
2018-07-06T06:07:29.260Z,"   65"
2018-07-06T06:12:25.118Z,"   90"
2018-07-06T06:17:22.228Z,"  105"
2018-07-06T06:22:18.069Z,"  100"
2018-07-06T06:27:13.906Z,"  130"
2018-07-06T06:32:10.101Z,"  130"
2018-07-06T06:37:06.087Z,"  130"
2018-07-06T06:42:02.130Z,"  145"
2018-07-06T06:46:58.307Z,"  160"
2018-07-06T06:51:55.208Z,"  175"
2018-07-06T06:56:52.024Z,"  155"
2018-07-06T07:01:48.657Z,"  135"
2018-07-06T07:06:44.335Z,"  125"
2018-07-06T07:11:40.121Z,"  155"
2018-07-06T07:16:36.921Z,"  145"
2018-07-06T07:21:33.420Z,"  110"
2018-07-06T07:26:29.030Z,"   65"
2018-07-06T07:31:24.632Z,"  120"
2018-07-06T07:36:20.437Z,"  180"
2018-07-06T07:41:16.778Z,"  230"
2018-07-06T07:46:13.411Z,"  165"
2018-07-06T07:51:09.323Z,"  160"
2018-07-06T07:56:05.519Z,"  200"
2018-07-06T08:01:01.856Z,"  260"
2018-07-06T08:05:58.585Z,"  715"
2018-07-06T08:10:55.450Z,"  245"
2018-07-06T08:15:51.556Z," 1265"
2018-07-06T08:20:52.061Z," 1425"
2018-07-06T08:25:50.616Z," 1050"
2018-07-06T08:30:48.152Z," 1355"
2018-07-06T08:35:45.304Z," 1420"
2018-07-06T08:40:40.762Z," 1370"
2018-07-06T08:45:38.059Z,"  785"
2018-07-06T08:50:37.815Z," 1430"
2018-07-06T08:55:35.468Z," 1325"
2018-07-06T09:00:32.141Z,"  445"
2018-07-06T09:05:25.832Z,"  310"
2018-07-06T09:10:20.831Z," 1680"
2018-07-06T09:15:17.786Z," 1560"
2018-07-06T09:20:13.907Z,"  680"
2018-07-06T09:25:13.179Z," 1410"
2018-07-06T09:30:11.316Z," 1645"
2018-07-06T09:35:10.076Z," 1680"
2018-07-06T09:40:06.750Z," 1350"
2018-07-06T09:45:01.988Z," 1595"
2018-07-06T09:49:59.498Z," 1775"
2018-07-06T09:54:56.257Z," 1835"
2018-07-06T09:59:52.425Z," 1860"
2018-07-06T10:04:48.696Z," 1770"
2018-07-06T10:09:44.867Z,"  385"
2018-07-06T10:14:41.024Z," 1715"
2018-07-06T10:19:37.714Z,"  850"
2018-07-06T10:24:33.082Z," 1860"
2018-07-06T10:29:28.707Z," 1630"
2018-07-06T10:34:25.196Z," 1590"
2018-07-06T10:39:21.074Z," 1870"
2018-07-06T10:44:18.118Z," 1805"
2018-07-06T10:49:14.856Z," 1860"
2018-07-06T10:54:11.530Z," 1600"
2018-07-06T10:59:08.095Z," 1925"
2018-07-06T11:04:05.500Z," 1835"
2018-07-06T11:09:03.005Z," 1870"
2018-07-06T11:13:59.219Z," 2060"
2018-07-06T11:18:55.932Z," 2090"
2018-07-06T11:23:53.583Z," 1960"
2018-07-06T11:28:49.916Z," 2130"
2018-07-06T11:33:46.198Z," 2165"
2018-07-06T11:38:42.195Z," 1705"
2018-07-06T11:43:38.796Z," 1545"
2018-07-06T11:48:35.309Z," 1750"
2018-07-06T11:53:31.658Z," 1875"
2018-07-06T11:58:28.715Z," 1650"
2018-07-06T12:03:24.685Z," 1875"
2018-07-06T12:08:20.651Z," 1700"
2018-07-06T12:13:16.932Z," 1815"
2018-07-06T12:18:12.770Z,"  235"
2018-07-06T12:23:09.985Z," 1720"
2018-07-06T12:28:05.226Z," 1910"
2018-07-06T12:33:00.251Z,"  290"
2018-07-06T12:37:53.836Z,"  945"
2018-07-06T12:42:51.707Z," 2045"
2018-07-06T12:47:50.083Z," 2080"
2018-07-06T12:52:47.022Z," 1535"
2018-07-06T12:57:42.132Z," 1755"
2018-07-06T13:02:40.094Z," 1730"
2018-07-06T13:07:37.747Z," 1725"
2018-07-06T13:12:33.498Z," 1610"
2018-07-06T13:17:28.944Z," 1815"
2018-07-06T13:22:26.371Z," 1030"
2018-07-06T13:27:21.698Z,"  245"
2018-07-06T13:32:16.886Z," 1815"
2018-07-06T13:37:14.013Z," 1705"
2018-07-06T13:42:10.566Z," 1475"
2018-07-06T13:47:07.157Z," 1560"
2018-07-06T13:52:03.259Z," 1600"
2018-07-06T13:56:58.403Z," 1710"
2018-07-06T14:01:54.134Z," 1520"
2018-07-06T14:06:49.613Z,"  775"
2018-07-06T14:11:45.371Z,"  260"
2018-07-06T14:16:40.799Z,"  225"
2018-07-06T14:21:37.472Z,"  225"
2018-07-06T14:26:33.554Z,"  230"
2018-07-06T14:31:28.633Z,"  240"
2018-07-06T14:36:24.298Z,"  235"
2018-07-06T14:41:20.237Z,"  265"
2018-07-06T14:46:16.048Z,"  245"
2018-07-06T14:51:12.103Z,"  245"
2018-07-06T14:56:08.578Z,"  205"
2018-07-06T15:01:05.504Z,"  250"
2018-07-06T15:06:02.249Z,"  250"
2018-07-06T15:10:57.937Z,"  220"
2018-07-06T15:15:53.773Z,"  230"
2018-07-06T15:20:50.742Z,"  235"
2018-07-06T15:25:46.439Z,"  220"
2018-07-06T15:30:42.467Z,"  225"
2018-07-06T15:35:38.465Z,"  215"
2018-07-06T15:40:34.420Z,"  210"
2018-07-06T15:45:30.547Z,"  220"
2018-07-06T15:50:27.710Z,"  210"
2018-07-06T15:55:23.509Z,"  215"
2018-07-06T16:00:19.415Z,"  180"
2018-07-06T16:05:15.271Z,"  175"
2018-07-06T16:10:11.300Z,"  150"
2018-07-06T16:15:07.875Z,"  135"
2018-07-06T16:20:03.619Z,"  145"
2018-07-06T16:24:59.225Z,"  125"
2018-07-06T16:29:54.856Z,"  115"
2018-07-06T16:34:51.775Z,"  110"
2018-07-06T16:39:47.409Z,"  100"
2018-07-06T16:44:43.303Z,"  100"
2018-07-06T16:49:40.250Z,"  120"
2018-07-06T16:54:37.161Z,"  140"
2018-07-06T16:59:34.057Z,"  120"
2018-07-06T17:04:30.850Z,"  115"
2018-07-06T17:09:26.611Z,"  105"
2018-07-06T17:14:22.429Z,"  105"
2018-07-06T17:19:19.442Z,"  110"
2018-07-06T17:24:15.419Z,"   90"
2018-07-06T17:29:11.234Z,"   80"
2018-07-06T17:34:08.158Z,"   70"
2018-07-06T17:39:03.731Z,"   65"
2018-07-06T17:44:00.487Z,"   60"
2018-07-06T17:48:56.196Z,"   65"
2018-07-06T17:53:53.158Z,"   65"
2018-07-06T17:58:48.663Z,"   60"
2018-07-06T18:03:44.273Z,"   55"
2018-07-06T18:08:41.215Z,"   60"
2018-07-06T18:13:36.759Z,"   60"
2018-07-06T18:18:32.687Z,"   60"
2018-07-06T18:23:29.448Z,"   55"
2018-07-06T18:28:25.402Z,"   50"
2018-07-06T18:33:21.045Z,"   45"
2018-07-06T18:38:17.013Z,"   45"
2018-07-06T18:43:13.871Z,"   40"
2018-07-06T18:48:09.457Z,"   35"
2018-07-06T18:53:05.224Z,"   35"
2018-07-06T18:58:02.162Z,"   30"
2018-07-06T19:02:59.001Z,"   25"
2018-07-06T19:07:54.352Z,"   20"
2018-07-06T19:12:50.267Z,"   20"
2018-07-06T19:17:46.353Z,"   15"
2018-07-06T19:22:42.383Z,"   10"
2018-07-06T19:27:38.162Z,"   10"
2018-07-06T19:32:33.921Z,"    5"
2018-07-06T19:37:29.717Z,"    5"
2018-07-06T19:42:26.083Z,"    5"
2018-07-06T19:47:22.119Z,"    0"
2018-07-06T19:52:17.792Z,"    0"
2018-07-06T19:57:13.430Z,"    0"
2018-07-06T20:02:09.623Z,"    0"
2018-07-06T20:07:05.519Z,"    0"
2018-07-06T20:12:01.099Z,"    0"
2018-07-06T20:16:57.088Z,"    0"
2018-07-06T20:21:53.883Z,"    0"
2018-07-06T20:26:49.769Z,"    0"
2018-07-06T20:31:45.971Z,"    0"
2018-07-06T20:36:43.350Z,"    0"
2018-07-06T20:41:39.806Z,"    0"
2018-07-06T20:46:35.161Z,"    0"
2018-07-06T20:51:31.041Z,"    0"
2018-07-06T20:56:28.441Z,"    0"
2018-07-06T21:01:25.273Z,"    0"
2018-07-06T21:06:21.673Z,"    0"
2018-07-06T21:11:17.696Z,"    0"
2018-07-06T21:16:14.114Z,"    0"
2018-07-06T21:21:10.407Z,"    0"
2018-07-06T21:26:06.201Z,"    0"
2018-07-06T21:31:02.246Z,"    0"
2018-07-06T21:35:58.092Z,"    0"
2018-07-06T21:40:53.824Z,"    0"
2018-07-06T21:45:49.809Z,"    0"
2018-07-06T21:50:45.739Z,"    0"
2018-07-06T21:55:41.429Z,"    0"
2018-07-06T22:00:37.709Z,"    0"
2018-07-06T22:05:34.199Z,"    0"
2018-07-06T22:10:29.871Z,"    0"
2018-07-06T22:15:25.711Z,"    0"
2018-07-06T22:20:21.810Z,"    0"
2018-07-06T22:25:17.529Z,"    0"
2018-07-06T22:30:13.159Z,"    0"
2018-07-06T22:35:09.076Z,"    0"
2018-07-06T22:40:04.834Z,"    0"
2018-07-06T22:45:00.626Z,"    0"
2018-07-06T22:49:56.253Z,"    0"
2018-07-06T22:54:52.596Z,"    0"
2018-07-06T22:59:48.332Z,"    0"
2018-07-06T23:04:44.229Z,"    0"
2018-07-06T23:09:39.908Z,"    0"
2018-07-06T23:14:35.994Z,"    0"
2018-07-06T23:19:32.805Z,"    0"
2018-07-06T23:24:28.534Z,"    0"
2018-07-06T23:29:24.578Z,"    0"
2018-07-06T23:34:20.313Z,"    0"
2018-07-06T23:39:15.950Z,"    0"
2018-07-06T23:44:11.779Z,"    0"
2018-07-06T23:49:08.740Z,"    0"
2018-07-06T23:54:04.320Z,"    0"
2018-07-06T23:59:00.330Z,"    0"
